Time;durP1;ratioP1;P1;durP2;ratioP2;P2;SDS_P1;SDS_P2;PMS_P1;PMS_P2;Temp;Humidity;BMP_temperature;BMP_pressure;BME280_temperature;BME280_humidity;BME280_pressure;Samples;Min_cycle;Max_cycle;Signal;HPM_P1;HPM_P2
2021/01/20 00:01:06;;;;;;;1.87;1.00;;;;;;;20.64;39.17;99916.59;6216717;23;20171;-37
2021/01/20 00:03:32;;;;;;;2.13;1.20;;;;;;;20.64;39.18;99932.06;6190838;23;20180;-37
2021/01/20 00:05:58;;;;;;;1.70;1.07;;;;;;;20.62;39.15;99915.94;6216734;23;20164;-37
2021/01/20 00:08:24;;;;;;;1.77;1.03;;;;;;;20.63;39.51;99916.78;6216741;23;20156;-37
2021/01/20 00:10:50;;;;;;;1.80;1.03;;;;;;;20.61;39.53;99900.69;6216594;23;20621;-37
2021/01/20 00:13:16;;;;;;;1.60;1.07;;;;;;;20.62;39.60;99877.03;6216557;23;20250;-37
2021/01/20 00:15:43;;;;;;;1.33;1.03;;;;;;;20.62;39.59;99896.91;6216500;23;20617;-39
2021/01/20 00:18:09;;;;;;;1.90;1.20;;;;;;;20.62;39.38;99894.19;6216527;23;20160;-39
2021/01/20 00:20:35;;;;;;;1.33;1.00;;;;;;;20.63;39.54;99890.44;6190173;23;20179;-41
2021/01/20 00:23:01;;;;;;;2.07;1.03;;;;;;;20.64;39.69;99885.84;6216436;23;20198;-46
2021/01/20 00:25:27;;;;;;;1.03;0.90;;;;;;;20.64;39.74;99874.97;6216605;23;20160;-47
2021/01/20 00:27:54;;;;;;;1.80;1.03;;;;;;;20.63;39.52;99857.81;6190648;23;20175;-46
2021/01/20 00:30:20;;;;;;;1.13;0.80;;;;;;;20.64;39.28;99851.31;6216502;23;20783;-38
2021/01/20 00:32:46;;;;;;;1.37;1.00;;;;;;;20.65;39.31;99846.72;6215820;23;20190;-41
2021/01/20 00:35:13;;;;;;;1.00;0.90;;;;;;;20.66;39.35;99848.41;6216372;23;20160;-35
2021/01/20 00:37:39;;;;;;;0.90;0.90;;;;;;;20.66;39.26;99842.97;6216415;23;20187;-38
2021/01/20 00:40:06;;;;;;;2.50;1.00;;;;;;;20.66;39.45;99837.53;6216488;23;20156;-39
2021/01/20 00:42:32;;;;;;;1.07;0.97;;;;;;;20.65;39.23;99838.56;6216004;23;20254;-37
2021/01/20 00:45:00;;;;;;;2.13;0.90;;;;;;;20.65;39.28;99823.09;6216404;23;20176;-37
2021/01/20 00:47:26;;;;;;;1.40;1.00;;;;;;;20.64;39.01;99823.28;6190675;23;20171;-37
2021/01/20 00:49:52;;;;;;;1.57;1.10;;;;;;;20.64;39.17;99815.97;6216616;23;20555;-37
2021/01/20 00:52:18;;;;;;;0.80;0.80;;;;;;;20.64;39.11;99826.00;6190206;23;20156;-36
2021/01/20 00:54:44;;;;;;;0.80;0.80;;;;;;;20.63;39.13;99819.75;6216160;23;20188;-45
2021/01/20 00:57:10;;;;;;;1.53;1.07;;;;;;;20.62;39.14;99818.06;6216244;23;20604;-47
2021/01/20 00:59:36;;;;;;;1.50;0.90;;;;;;;20.60;39.14;99814.72;6189945;23;20299;-48
2021/01/20 01:02:02;;;;;;;1.00;1.00;;;;;;;20.59;39.09;99806.75;6216206;23;20223;-46
2021/01/20 01:04:29;;;;;;;1.17;1.03;;;;;;;20.57;39.23;99806.94;6216284;23;20192;-40
2021/01/20 01:06:55;;;;;;;1.47;0.80;;;;;;;20.57;39.08;99803.38;6216444;23;20164;-51
2021/01/20 01:09:21;;;;;;;1.27;0.90;;;;;;;20.56;39.29;99793.53;6216003;23;20243;-52
2021/01/20 01:11:47;;;;;;;1.90;0.97;;;;;;;20.53;39.04;99794.78;6189837;23;20176;-37
2021/01/20 01:14:13;;;;;;;1.10;1.00;;;;;;;20.52;39.42;99785.81;6140605;23;20195;-37
2021/01/20 01:16:39;;;;;;;1.17;0.90;;;;;;;20.52;39.30;99776.81;6216103;23;20168;-37
2021/01/20 01:19:06;;;;;;;0.70;0.70;;;;;;;20.50;39.51;99782.44;6216105;23;20156;-37
2021/01/20 01:21:32;;;;;;;1.10;1.00;;;;;;;20.52;39.47;99768.66;6216153;23;20246;-38
2021/01/20 01:23:58;;;;;;;1.37;1.00;;;;;;;20.50;39.59;99768.84;6215883;23;20661;-33
2021/01/20 01:26:24;;;;;;;1.13;0.90;;;;;;;20.52;39.45;99768.66;6215939;23;20156;-37
2021/01/20 01:28:51;;;;;;;1.07;0.97;;;;;;;20.52;39.66;99780.38;6215825;23;20217;-37
2021/01/20 01:31:17;;;;;;;0.97;0.90;;;;;;;20.51;39.59;99775.97;6215750;23;20179;-37
2021/01/20 01:33:43;;;;;;;1.17;0.80;;;;;;;20.52;39.57;99764.06;6216139;23;20191;-48
2021/01/20 01:36:09;;;;;;;0.90;0.90;;;;;;;20.53;39.54;99775.75;6189889;23;20165;-50
2021/01/20 01:38:36;;;;;;;0.80;0.80;;;;;;;20.52;39.33;99758.63;6215767;23;20348;-49
2021/01/20 01:41:02;;;;;;;2.13;0.73;;;;;;;20.53;39.50;99765.72;6190016;23;20175;-48
2021/01/20 01:43:28;;;;;;;0.73;0.73;;;;;;;20.53;39.32;99763.00;6215513;23;20280;-46
2021/01/20 01:45:54;;;;;;;1.53;0.90;;;;;;;20.54;39.28;99767.41;6215764;23;20164;-47
2021/01/20 01:48:20;;;;;;;1.87;0.93;;;;;;;20.54;39.21;99763.84;6215680;23;20161;-37
2021/01/20 01:50:49;;;;;;;1.00;0.83;;;;;;;20.54;39.08;99756.53;6215709;23;20174;-31
2021/01/20 01:53:15;;;;;;;0.87;0.70;;;;;;;20.53;39.26;99756.72;6189844;23;20238;-41
2021/01/20 01:55:41;;;;;;;0.93;0.90;;;;;;;20.51;39.17;99762.38;6189536;23;20279;-42
2021/01/20 01:58:08;;;;;;;1.10;0.90;;;;;;;20.52;39.16;99753.19;6215519;23;20161;-40
2021/01/20 02:00:34;;;;;;;0.90;0.87;;;;;;;20.51;39.14;99766.97;6189100;23;20167;-41
2021/01/20 02:03:01;;;;;;;0.80;0.80;;;;;;;20.49;38.97;99756.31;6214875;23;20574;-38
2021/01/20 02:05:27;;;;;;;1.30;1.00;;;;;;;20.48;38.88;99761.94;6215969;23;20204;-46
2021/01/20 02:07:53;;;;;;;0.70;0.70;;;;;;;20.47;38.81;99755.69;6215166;23;20167;-46
2021/01/20 02:10:19;;;;;;;0.70;0.70;;;;;;;20.47;38.93;99755.69;6189306;23;20170;-45
2021/01/20 02:13:01;;;;;;;0.90;0.90;;;;;;;20.48;39.03;99759.22;6215408;23;20176;-45
2021/01/20 02:16:06;;;;;;;1.10;1.00;;;;;;;20.48;38.88;99751.06;6166250;23;20149;-41
2021/01/20 02:18:34;;;;;;;1.73;1.00;;;;;;;20.46;39.34;99748.56;6189291;23;20613;-40
2021/01/20 02:21:34;;;;;;;0.80;0.80;;;;;;;20.45;39.07;99746.06;6188961;23;20156;-46
2021/01/20 02:24:01;;;;;;;1.10;1.00;;;;;;;20.43;39.39;99738.09;6188930;23;20192;-45
2021/01/20 02:26:55;;;;;;;1.43;1.00;;;;;;;20.44;39.52;99728.06;6189497;23;20222;-45
2021/01/20 02:29:41;;;;;;;1.33;0.90;;;;;;;20.45;39.31;99724.31;6215334;23;20191;-45
2021/01/20 02:32:07;;;;;;;0.70;0.70;;;;;;;20.42;39.34;99724.72;6215744;23;20212;-45
2021/01/20 02:34:33;;;;;;;0.80;0.80;;;;;;;20.42;39.46;99725.56;6164920;23;20191;-45
2021/01/20 02:36:59;;;;;;;1.20;1.07;;;;;;;20.43;39.55;99729.94;6164644;23;20163;-46
2021/01/20 02:39:25;;;;;;;0.90;0.90;;;;;;;20.43;39.35;99738.09;6189513;23;20627;-45
2021/01/20 02:41:51;;;;;;;1.40;0.80;;;;;;;20.44;39.36;99728.06;6164293;23;20207;-46
2021/01/20 02:44:17;;;;;;;0.90;0.90;;;;;;;20.45;39.25;99735.19;6188620;23;20200;-46
2021/01/20 02:46:44;;;;;;;0.80;0.80;;;;;;;20.45;39.44;99718.88;6215188;23;20171;-47
2021/01/20 02:49:10;;;;;;;1.00;1.00;;;;;;;20.45;39.21;99724.31;6215119;23;20243;-43
2021/01/20 02:51:49;;;;;;;1.10;1.00;;;;;;;20.46;39.36;99726.81;6215235;23;20160;-38
2021/01/20 02:54:15;;;;;;;0.90;0.90;;;;;;;20.47;39.44;99733.94;6215320;23;20324;-38
2021/01/20 02:56:44;;;;;;;0.90;0.90;;;;;;;20.46;39.19;99715.09;6188983;23;20793;-46
2021/01/20 02:59:10;;;;;;;0.63;0.63;;;;;;;20.46;39.26;99720.53;6189453;23;20156;-46
2021/01/20 03:01:37;;;;;;;0.90;0.80;;;;;;;20.45;39.12;99713.44;6189093;23;20261;-33
2021/01/20 03:04:03;;;;;;;0.90;0.90;;;;;;;20.45;39.09;99708.84;6188728;23;20177;-32
2021/01/20 03:06:29;;;;;;;1.07;0.97;;;;;;;20.43;39.12;99702.78;6188829;23;20167;-37
2021/01/20 03:08:57;;;;;;;1.17;0.80;;;;;;;20.43;38.89;99710.91;6188975;23;20195;-38
2021/01/20 03:11:23;;;;;;;0.73;0.73;;;;;;;20.42;38.89;99709.25;6188873;23;20156;-32
2021/01/20 03:13:49;;;;;;;0.90;0.70;;;;;;;20.41;39.17;99713.00;6215314;23;20176;-32
2021/01/20 03:16:18;;;;;;;0.80;0.80;;;;;;;20.41;38.98;99702.13;6190971;23;20160;-37
2021/01/20 03:18:44;;;;;;;0.70;0.70;;;;;;;20.40;39.12;99703.19;6166890;23;20156;-51
2021/01/20 03:21:10;;;;;;;1.13;0.93;;;;;;;20.40;39.29;99699.59;6218243;23;20636;-39
2021/01/20 03:23:36;;;;;;;0.90;0.80;;;;;;;20.39;39.06;99692.47;6217127;23;20184;-40
2021/01/20 03:26:03;;;;;;;0.93;0.90;;;;;;;20.38;39.23;99690.81;6217570;23;20164;-45
2021/01/20 03:28:29;;;;;;;0.73;0.70;;;;;;;20.38;39.15;99686.22;6217484;23;20230;-45
2021/01/20 03:30:55;;;;;;;0.73;0.73;;;;;;;20.38;39.50;99690.81;6217130;23;20187;-42
2021/01/20 03:33:21;;;;;;;0.80;0.77;;;;;;;20.38;39.33;99688.09;6216992;23;20177;-45
2021/01/20 03:35:47;;;;;;;0.80;0.80;;;;;;;20.38;39.54;99686.22;6216953;23;20153;-38
2021/01/20 03:38:13;;;;;;;1.07;0.97;;;;;;;20.39;39.41;99676.19;6216852;23;20167;-49
2021/01/20 03:40:39;;;;;;;0.87;0.87;;;;;;;20.40;39.54;99670.56;6216882;23;20184;-37
2021/01/20 03:43:05;;;;;;;0.60;0.60;;;;;;;20.40;39.55;99656.97;6216564;23;20192;-36
2021/01/20 03:45:31;;;;;;;0.97;0.80;;;;;;;20.40;39.53;99665.13;6190658;23;20230;-41
2021/01/20 03:47:57;;;;;;;0.80;0.80;;;;;;;20.40;39.66;99654.25;6216865;23;20578;-36
2021/01/20 03:50:23;;;;;;;0.80;0.80;;;;;;;20.41;39.22;99650.50;6216914;23;20171;-46
2021/01/20 03:52:49;;;;;;;0.90;0.90;;;;;;;20.41;39.47;99647.78;6191432;23;20191;-39
2021/01/20 03:55:16;;;;;;;0.90;0.90;;;;;;;20.42;39.43;99654.03;6217549;23;20168;-37
2021/01/20 03:57:42;;;;;;;0.70;0.70;;;;;;;20.43;39.10;99653.84;6191456;23;20234;-51
2021/01/20 04:00:08;;;;;;;0.83;0.83;;;;;;;20.42;39.19;99644.00;6218030;23;20156;-40
2021/01/20 04:02:34;;;;;;;0.93;0.83;;;;;;;20.42;39.11;99635.03;6216840;23;20191;-43
2021/01/20 04:05:00;;;;;;;0.70;0.70;;;;;;;20.43;38.98;99644.84;6216717;23;20167;-41
2021/01/20 04:07:26;;;;;;;0.90;0.90;;;;;;;20.43;38.91;99639.41;6216597;23;20161;-40
2021/01/20 04:09:52;;;;;;;0.80;0.80;;;;;;;20.42;39.14;99619.56;6216633;23;20480;-41
2021/01/20 04:12:18;;;;;;;0.90;0.90;;;;;;;20.41;39.32;99622.47;6216734;23;20152;-42
2021/01/20 04:14:44;;;;;;;0.70;0.70;;;;;;;20.41;39.26;99612.44;6216704;23;20176;-46
2021/01/20 04:17:10;;;;;;;0.70;0.70;;;;;;;20.41;39.22;99609.72;6190499;23;20171;-38
2021/01/20 04:19:36;;;;;;;1.10;0.90;;;;;;;20.40;39.35;99618.91;6216664;23;20160;-46
2021/01/20 04:22:03;;;;;;;0.80;0.80;;;;;;;20.41;39.37;99615.16;6216438;23;20176;-46
2021/01/20 04:24:29;;;;;;;0.80;0.80;;;;;;;20.41;39.37;99607.00;6216502;23;20184;-43
2021/01/20 04:26:55;;;;;;;1.10;0.90;;;;;;;20.39;39.26;99600.91;6216095;23;20164;-47
2021/01/20 04:29:21;;;;;;;0.70;0.70;;;;;;;20.40;39.46;99602.63;6216517;23;20171;-46
2021/01/20 04:31:47;;;;;;;0.80;0.80;;;;;;;20.41;39.36;99593.41;6216518;23;20187;-31
2021/01/20 04:34:13;;;;;;;0.70;0.70;;;;;;;20.41;39.39;99596.13;6216318;23;20263;-36
2021/01/20 04:36:39;;;;;;;0.70;0.70;;;;;;;20.41;39.62;99587.97;6190296;23;20226;-37
2021/01/20 04:39:05;;;;;;;0.83;0.83;;;;;;;20.42;39.27;99584.22;6216524;23;20157;-37
2021/01/20 04:41:33;;;;;;;0.80;0.80;;;;;;;20.43;39.56;99583.16;6216526;23;20267;-37
2021/01/20 04:43:59;;;;;;;0.83;0.80;;;;;;;20.43;39.61;99577.72;6216325;23;20196;-37
2021/01/20 04:46:25;;;;;;;0.80;0.80;;;;;;;20.43;39.31;99580.44;6190269;23;20160;-37
2021/01/20 04:48:54;;;;;;;0.70;0.70;;;;;;;20.43;39.47;99580.44;6190249;23;20566;-37
2021/01/20 04:51:20;;;;;;;0.70;0.70;;;;;;;20.43;39.29;99580.44;6190629;23;20157;-38
2021/01/20 04:53:46;;;;;;;0.80;0.80;;;;;;;20.44;39.15;99584.00;6165227;23;20184;-38
2021/01/20 04:56:13;;;;;;;0.70;0.70;;;;;;;20.44;39.35;99565.81;6190248;23;20160;-38
2021/01/20 04:58:39;;;;;;;0.80;0.80;;;;;;;20.44;39.08;99567.69;6216196;23;20161;-46
2021/01/20 05:01:05;;;;;;;0.60;0.60;;;;;;;20.43;39.03;99569.56;6216094;23;20160;-47
2021/01/20 05:03:31;;;;;;;0.70;0.70;;;;;;;20.43;39.08;99552.44;6190101;23;20180;-47
2021/01/20 05:05:57;;;;;;;0.80;0.80;;;;;;;20.42;38.95;99554.31;6190330;23;20463;-38
2021/01/20 05:08:23;;;;;;;0.63;0.63;;;;;;;20.41;38.95;99555.38;6216326;23;20167;-38
2021/01/20 05:10:49;;;;;;;0.83;0.83;;;;;;;20.41;39.32;99549.94;6216227;23;20499;-47
2021/01/20 05:13:28;;;;;;;1.00;1.00;;;;;;;20.42;38.84;99548.88;6216036;23;20176;-49
2021/01/20 05:15:55;;;;;;;0.90;0.90;;;;;;;20.40;39.00;99550.97;6216022;23;20184;-38
2021/01/20 05:18:21;;;;;;;0.90;0.90;;;;;;;20.39;39.30;99540.28;6189763;23;20464;-47
2021/01/20 05:20:47;;;;;;;0.87;0.87;;;;;;;20.38;39.24;99546.75;6215924;23;20164;-47
2021/01/20 05:23:14;;;;;;;0.77;0.77;;;;;;;20.38;39.36;99547.59;6189716;23;20560;-37
2021/01/20 05:25:49;;;;;;;0.70;0.70;;;;;;;20.38;39.32;99547.59;6215990;23;20160;-49
2021/01/20 05:28:16;;;;;;;0.80;0.80;;;;;;;20.38;39.47;99544.88;6216004;23;20578;-48
2021/01/20 05:30:50;;;;;;;0.80;0.80;;;;;;;20.39;39.13;99546.56;6215861;23;20243;-47
2021/01/20 05:33:18;;;;;;;0.80;0.80;;;;;;;20.40;39.53;99547.38;6189745;23;20246;-42
2021/01/20 05:35:44;;;;;;;0.70;0.70;;;;;;;20.39;39.59;99541.13;6190263;23;20194;-36
2021/01/20 05:38:11;;;;;;;0.80;0.80;;;;;;;20.39;39.60;99541.13;6215835;23;20156;-37
2021/01/20 05:40:37;;;;;;;0.90;0.90;;;;;;;20.39;39.55;99541.13;6215816;23;20175;-41
2021/01/20 05:43:04;;;;;;;1.00;0.90;;;;;;;20.41;39.29;99547.22;6215585;23;20508;-46
2021/01/20 05:45:30;;;;;;;0.70;0.70;;;;;;;20.41;39.19;99543.66;6189764;23;20226;-45
2021/01/20 05:48:02;;;;;;;1.27;0.87;;;;;;;20.42;39.20;99539.88;6215686;23;20176;-45
2021/01/20 05:50:29;;;;;;;0.70;0.70;;;;;;;20.41;39.25;99538.22;6215803;23;20641;-50
2021/01/20 05:53:08;;;;;;;1.33;0.90;;;;;;;20.43;39.20;99536.97;6189729;23;20172;-38
2021/01/20 05:55:35;;;;;;;0.80;0.80;;;;;;;20.41;39.09;99539.06;6215747;23;20717;-38
2021/01/20 05:58:01;;;;;;;0.90;0.90;;;;;;;20.41;39.13;99527.34;6216104;23;20203;-38
2021/01/20 06:00:27;;;;;;;0.90;0.87;;;;;;;20.40;39.12;99534.66;6215669;23;20164;-38
2021/01/20 06:02:57;;;;;;;0.80;0.80;;;;;;;20.41;38.97;99540.94;6164743;23;20196;-50
2021/01/20 06:05:24;;;;;;;0.80;0.80;;;;;;;20.40;38.91;99531.09;6189311;23;20579;-51
2021/01/20 06:07:51;;;;;;;0.73;0.70;;;;;;;20.39;39.00;99529.41;6215671;23;20168;-50
2021/01/20 06:10:18;;;;;;;0.70;0.70;;;;;;;20.37;38.88;99526.91;6215460;23;20213;-50
2021/01/20 06:12:44;;;;;;;0.80;0.80;;;;;;;20.37;38.97;99526.91;6215354;23;20187;-48
2021/01/20 06:15:11;;;;;;;0.70;0.70;;;;;;;20.36;38.79;99527.94;6189171;23;20286;-48
2021/01/20 06:17:41;;;;;;;0.90;0.90;;;;;;;20.37;38.95;99526.06;6188731;23;20471;-49
2021/01/20 06:20:07;;;;;;;0.70;0.70;;;;;;;20.35;39.02;99517.28;6215433;23;20187;-49
2021/01/20 06:22:35;;;;;;;0.70;0.70;;;;;;;20.35;39.02;99520.84;6215507;23;20267;-39
2021/01/20 06:25:11;;;;;;;0.70;0.70;;;;;;;20.35;39.16;99525.44;6215582;23;20159;-38
2021/01/20 06:27:43;;;;;;;0.80;0.80;;;;;;;20.34;39.12;99516.41;6166112;23;20153;-38
2021/01/20 06:30:21;;;;;;;0.80;0.80;;;;;;;20.33;39.14;99516.63;6164930;23;20789;-38
2021/01/20 06:32:48;;;;;;;0.83;0.83;;;;;;;20.34;39.27;99512.88;6191898;23;20191;-38
2021/01/20 06:35:15;;;;;;;0.73;0.73;;;;;;;20.35;39.48;99518.13;6164502;23;20467;-37
2021/01/20 06:37:45;;;;;;;0.80;0.80;;;;;;;20.35;39.61;99512.69;6189390;23;20171;-50
2021/01/20 06:40:31;;;;;;;0.70;0.70;;;;;;;20.38;39.55;99512.25;6189165;23;20160;-49
2021/01/20 06:42:57;;;;;;;0.73;0.73;;;;;;;20.37;39.42;99513.31;6189647;23;20204;-38
2021/01/20 06:45:26;;;;;;;0.73;0.73;;;;;;;20.40;39.47;99509.34;6189191;23;20155;-33
2021/01/20 06:47:58;;;;;;;0.70;0.70;;;;;;;20.39;39.66;99505.78;6188981;23;20171;-33
2021/01/20 06:50:28;;;;;;;0.70;0.70;;;;;;;20.40;39.48;99502.06;6215047;23;20508;-33
2021/01/20 06:53:07;;;;;;;0.70;0.70;;;;;;;20.41;39.38;99505.59;6215107;23;20485;-33
2021/01/20 06:55:37;;;;;;;0.73;0.73;;;;;;;20.42;39.28;99491.81;6215293;23;20152;-48
2021/01/20 06:58:19;;;;;;;0.90;0.90;;;;;;;20.43;39.23;99498.06;6214938;23;20170;-48
2021/01/20 07:01:08;;;;;;;0.87;0.87;;;;;;;20.44;39.23;99503.31;6189299;23;20160;-47
2021/01/20 07:03:48;;;;;;;0.80;0.80;;;;;;;20.44;39.32;99499.75;6214614;23;20254;-35
2021/01/20 07:06:33;;;;;;;0.70;0.70;;;;;;;20.44;39.02;99505.19;6215281;23;20144;-40
2021/01/20 07:09:00;;;;;;;0.70;0.70;;;;;;;20.42;39.06;99502.69;6215199;23;20218;-39
2021/01/20 07:11:26;;;;;;;0.70;0.70;;;;;;;20.42;38.93;99504.56;6215214;23;20203;-36
2021/01/20 07:13:52;;;;;;;0.80;0.80;;;;;;;20.42;39.07;99497.25;6215110;23;20180;-39
2021/01/20 07:16:18;;;;;;;0.90;0.90;;;;;;;20.41;39.08;99501.00;6189091;23;20161;-39
2021/01/20 07:18:45;;;;;;;1.00;1.00;;;;;;;20.41;38.88;99505.59;6215226;23;20464;-40
2021/01/20 07:21:11;;;;;;;0.87;0.87;;;;;;;20.40;38.75;99498.47;6215023;23;20172;-40
2021/01/20 07:23:38;;;;;;;0.70;0.70;;;;;;;20.41;38.79;99511.88;6215011;23;20184;-38
2021/01/20 07:26:04;;;;;;;0.70;0.70;;;;;;;20.40;38.99;99503.91;6215063;23;20247;-43
2021/01/20 07:28:31;;;;;;;1.03;1.00;;;;;;;20.38;38.92;99495.97;6214990;23;20167;-46
2021/01/20 07:31:10;;;;;;;0.80;0.80;;;;;;;20.39;39.21;99511.22;6214479;23;20215;-46
2021/01/20 07:33:38;;;;;;;0.80;0.80;;;;;;;20.38;39.09;99501.41;6215107;23;20192;-46
2021/01/20 07:36:17;;;;;;;0.80;0.80;;;;;;;20.39;39.04;99507.66;6215052;23;20189;-46
2021/01/20 07:38:47;;;;;;;0.70;0.70;;;;;;;20.39;39.39;99505.78;6188681;23;20152;-46
2021/01/20 07:41:15;;;;;;;0.70;0.70;;;;;;;20.38;39.30;99501.41;6215396;23;20221;-46
2021/01/20 07:43:41;;;;;;;0.83;0.83;;;;;;;20.38;39.37;99506.84;6188523;23;20738;-46
2021/01/20 07:46:21;;;;;;;0.83;0.83;;;;;;;20.41;39.44;99506.44;6188837;23;20298;-46
2021/01/20 07:48:47;;;;;;;0.80;0.80;;;;;;;20.39;39.46;99508.50;6215141;23;20562;-46
2021/01/20 07:51:17;;;;;;;0.60;0.57;;;;;;;20.42;39.61;99507.28;6215247;23;20192;-46
2021/01/20 07:53:55;;;;;;;0.70;0.70;;;;;;;20.43;39.34;99501.63;6188649;23;20184;-46
2021/01/20 07:56:22;;;;;;;0.70;0.70;;;;;;;20.43;39.23;99504.34;6164323;23;20144;-46
2021/01/20 07:58:48;;;;;;;0.67;0.67;;;;;;;20.44;39.25;99506.00;6188908;23;20186;-46
2021/01/20 08:01:27;;;;;;;0.80;0.80;;;;;;;20.45;39.37;99504.97;6215445;23;20168;-46
2021/01/20 08:03:54;;;;;;;0.60;0.60;;;;;;;20.46;39.24;99505.81;6216799;23;20208;-37
2021/01/20 08:06:20;;;;;;;0.77;0.77;;;;;;;20.45;39.32;99504.97;6191330;23;20171;-37
2021/01/20 08:08:59;;;;;;;0.70;0.70;;;;;;;20.48;39.23;99512.69;6216849;23;20472;-37
2021/01/20 08:11:28;;;;;;;0.70;0.70;;;;;;;20.48;38.92;99504.53;6217050;23;20433;-37
2021/01/20 08:13:54;;;;;;;0.83;0.83;;;;;;;20.45;39.31;99504.97;6190701;23;20180;-37
2021/01/20 08:16:20;;;;;;;0.67;0.60;;;;;;;20.45;39.09;99502.25;6141146;23;20574;-37
2021/01/20 08:18:46;;;;;;;0.90;0.90;;;;;;;20.44;39.17;99500.59;6190658;23;20171;-37
2021/01/20 08:21:12;;;;;;;0.70;0.70;;;;;;;20.43;39.07;99498.91;6190433;23;20497;-37
2021/01/20 08:23:51;;;;;;;0.60;0.60;;;;;;;20.44;38.98;99500.59;6190489;23;20290;-38
2021/01/20 08:26:22;;;;;;;0.70;0.70;;;;;;;20.43;38.97;99507.06;6192809;23;20627;-38
2021/01/20 08:29:21;;;;;;;0.93;0.87;;;;;;;20.45;38.92;99499.53;6216358;23;20149;-38
2021/01/20 08:32:04;;;;;;;0.80;0.80;;;;;;;20.42;38.99;99502.69;6135910;23;20582;-38
2021/01/20 08:34:43;;;;;;;0.70;0.70;;;;;;;20.43;39.30;99493.47;6216512;23;20180;-38
2021/01/20 08:37:12;;;;;;;0.47;0.47;;;;;;;20.41;39.20;99473.81;6191614;23;20577;-38
2021/01/20 08:39:59;;;;;;;0.60;0.60;;;;;;;20.42;39.19;99475.50;6216253;23;20184;-38
2021/01/20 08:42:35;;;;;;;0.70;0.70;;;;;;;20.41;39.23;99476.53;6216252;23;20234;-38
2021/01/20 08:45:08;;;;;;;0.63;0.63;;;;;;;20.42;39.42;99480.09;6192326;23;20152;-38
2021/01/20 08:48:02;;;;;;;0.53;0.53;;;;;;;20.43;39.33;99465.47;6216632;23;20522;-38
2021/01/20 08:50:30;;;;;;;1.17;0.80;;;;;;;20.41;39.38;99471.09;6192303;23;20148;-37
2021/01/20 08:53:01;;;;;;;0.70;0.70;;;;;;;20.43;39.47;99469.00;6216489;23;20196;-38
2021/01/20 08:55:39;;;;;;;0.60;0.60;;;;;;;20.44;39.16;99497.84;6216404;23;20168;-38
2021/01/20 08:58:24;;;;;;;0.67;0.67;;;;;;;20.44;39.16;99489.72;6191245;23;20156;-37
2021/01/20 09:00:51;;;;;;;0.63;0.63;;;;;;;20.44;39.47;99483.44;6216382;23;20226;-38
2021/01/20 09:03:18;;;;;;;0.60;0.60;;;;;;;20.44;39.44;99478.84;6189701;23;20277;-38
2021/01/20 09:05:45;;;;;;;0.60;0.60;;;;;;;20.44;39.24;99476.13;6216217;23;20578;-38
2021/01/20 09:08:11;;;;;;;0.80;0.80;;;;;;;20.43;39.20;99469.00;6216418;23;20258;-37
2021/01/20 09:10:37;;;;;;;0.60;0.60;;;;;;;20.44;38.96;99476.13;6216084;23;20272;-38
2021/01/20 09:13:03;;;;;;;0.70;0.70;;;;;;;20.45;39.03;99466.91;6215724;23;20685;-37
2021/01/20 09:15:30;;;;;;;0.60;0.60;;;;;;;20.43;39.01;99471.72;6215983;23;20169;-38
2021/01/20 09:17:56;;;;;;;0.60;0.60;;;;;;;20.44;39.01;99462.53;6216000;23;20157;-38
2021/01/20 09:20:22;;;;;;;0.60;0.60;;;;;;;20.44;38.93;99469.84;6216097;23;20239;-38
2021/01/20 09:22:48;;;;;;;0.70;0.70;;;;;;;20.43;38.79;99465.47;6215962;23;20231;-38
2021/01/20 09:25:14;;;;;;;0.70;0.70;;;;;;;20.41;38.90;99462.94;6216552;23;20214;-37
2021/01/20 09:27:40;;;;;;;0.73;0.73;;;;;;;20.41;38.66;99451.25;6216192;23;20168;-37
2021/01/20 09:30:07;;;;;;;0.80;0.80;;;;;;;20.41;38.95;99457.50;6215660;23;20161;-37
2021/01/20 09:32:37;;;;;;;0.70;0.70;;;;;;;20.41;38.85;99465.66;6215662;23;20582;-37
2021/01/20 09:35:13;;;;;;;0.60;0.60;;;;;;;20.41;38.90;99451.25;6216174;23;20247;-38
2021/01/20 09:37:40;;;;;;;0.70;0.70;;;;;;;20.38;39.12;99449.75;6215784;23;20259;-38
2021/01/20 09:40:08;;;;;;;0.60;0.60;;;;;;;20.38;39.18;99449.75;6216025;23;20469;-38
2021/01/20 09:42:37;;;;;;;0.70;0.70;;;;;;;20.39;39.06;99447.88;6215240;23;20625;-38
2021/01/20 09:45:04;;;;;;;0.60;0.60;;;;;;;20.38;39.12;99459.78;6215982;23;20231;-38
2021/01/20 09:47:30;;;;;;;0.70;0.70;;;;;;;20.38;39.45;99468.78;6216247;23;20195;-38
2021/01/20 09:49:57;;;;;;;0.77;0.77;;;;;;;20.38;39.17;99455.19;6215688;23;20243;-38
2021/01/20 09:52:25;;;;;;;0.50;0.50;;;;;;;20.38;39.31;99452.47;6189387;23;20161;-38
2021/01/20 09:54:54;;;;;;;0.60;0.60;;;;;;;20.40;39.40;99444.97;6215769;23;20157;-38
2021/01/20 09:57:21;;;;;;;0.80;0.80;;;;;;;20.40;39.21;99450.41;6215603;23;20164;-38
2021/01/20 09:59:48;;;;;;;0.70;0.70;;;;;;;20.41;39.40;99456.69;6215702;23;20160;-38
2021/01/20 10:02:14;;;;;;;0.60;0.60;;;;;;;20.41;39.10;99460.22;6164319;23;20176;-37
2021/01/20 10:04:41;;;;;;;0.50;0.50;;;;;;;20.42;39.27;99447.47;6189267;23;20311;-39
2021/01/20 10:07:07;;;;;;;0.50;0.50;;;;;;;20.42;39.07;99464.63;6215391;23;20222;-45
2021/01/20 10:09:34;;;;;;;0.70;0.70;;;;;;;20.43;39.14;99477.16;6164841;23;20246;-45
2021/01/20 10:12:00;;;;;;;0.83;0.60;;;;;;;20.43;39.05;99482.59;6189429;23;20222;-46
2021/01/20 10:14:26;;;;;;;0.77;0.77;;;;;;;20.42;38.96;99464.63;6215822;23;20267;-45
2021/01/20 10:16:52;;;;;;;0.50;0.50;;;;;;;20.43;38.83;99466.28;6215903;23;20176;-49
2021/01/20 10:19:18;;;;;;;0.70;0.70;;;;;;;20.41;38.98;99457.50;6215600;23;20156;-47
2021/01/20 10:21:44;;;;;;;0.70;0.70;;;;;;;20.42;38.75;99461.91;6215415;23;20211;-47
2021/01/20 10:24:11;;;;;;;1.37;0.80;;;;;;;20.41;38.73;99441.22;6188857;23;20193;-36
2021/01/20 10:26:37;;;;;;;0.70;0.70;;;;;;;20.42;38.93;99442.03;6215321;23;20472;-37
2021/01/20 10:29:04;;;;;;;0.60;0.60;;;;;;;20.40;38.87;99417.78;6189289;23;20240;-45
2021/01/20 10:31:31;;;;;;;0.93;0.73;;;;;;;20.41;39.03;99411.31;6215254;23;20170;-48
2021/01/20 10:33:57;;;;;;;0.70;0.70;;;;;;;20.40;39.02;99401.50;6189200;23;20270;-47
2021/01/20 10:36:23;;;;;;;0.60;0.60;;;;;;;20.41;39.21;99396.88;6189190;23;20230;-46
2021/01/20 10:38:49;;;;;;;0.60;0.60;;;;;;;20.41;39.36;99386.84;6215521;23;20168;-46
2021/01/20 10:41:18;;;;;;;0.70;0.70;;;;;;;20.41;39.15;99381.41;6189121;23;20164;-36
2021/01/20 10:43:44;;;;;;;0.60;0.60;;;;;;;20.41;39.15;99392.28;6214889;23;20667;-37
2021/01/20 10:46:10;;;;;;;0.77;0.70;;;;;;;20.44;39.44;99407.34;6201075;23;20176;-47
2021/01/20 10:48:37;;;;;;;0.70;0.70;;;;;;;20.44;39.88;99419.03;6210405;23;20172;-48
2021/01/20 10:51:03;;;;;;;1.67;0.80;;;;;;;20.48;40.16;99408.56;6183978;23;20179;-47
2021/01/20 10:53:29;;;;;;;0.57;0.57;;;;;;;20.52;40.05;99399.78;6184119;23;20530;-47
2021/01/20 10:55:55;;;;;;;0.93;0.93;;;;;;;20.58;40.38;99394.53;6209816;23;20160;-44
2021/01/20 10:58:21;;;;;;;1.17;0.60;;;;;;;20.63;40.49;99381.16;6209618;23;20175;-47
2021/01/20 11:00:50;;;;;;;0.70;0.70;;;;;;;20.70;40.56;99385.50;6210018;23;20164;-46
2021/01/20 11:03:17;;;;;;;0.80;0.80;;;;;;;20.58;41.02;99387.19;6209370;23;20492;-33
2021/01/20 11:05:43;;;;;;;0.60;0.60;;;;;;;20.73;40.95;99384.25;6209924;23;20164;-33
2021/01/20 11:08:09;;;;;;;0.60;0.60;;;;;;;20.84;41.21;99386.31;6183429;23;20222;-34
2021/01/20 11:10:39;;;;;;;0.53;0.53;;;;;;;20.95;41.16;99388.34;6210091;23;20578;-37
2021/01/20 11:13:08;;;;;;;0.70;0.70;;;;;;;21.04;41.03;99375.31;6210044;23;20818;-32
2021/01/20 11:15:35;;;;;;;0.97;0.67;;;;;;;21.11;41.19;99379.69;6209800;23;20159;-32
2021/01/20 11:18:02;;;;;;;1.30;0.83;;;;;;;21.20;41.28;99371.25;6210284;23;20160;-32
2021/01/20 11:20:29;;;;;;;0.70;0.70;;;;;;;21.28;41.20;99374.56;6210079;23;20160;-38
2021/01/20 11:22:55;;;;;;;0.87;0.80;;;;;;;21.35;41.13;99374.56;6209857;23;20192;-38
2021/01/20 11:25:21;;;;;;;0.60;0.60;;;;;;;21.44;41.34;99375.94;6209964;23;20164;-38
2021/01/20 11:27:48;;;;;;;0.87;0.60;;;;;;;21.51;41.17;99371.28;6210034;23;20251;-38
2021/01/20 11:30:15;;;;;;;0.93;0.63;;;;;;;21.60;41.41;99367.25;6210189;23;20176;-37
2021/01/20 11:32:41;;;;;;;0.80;0.80;;;;;;;21.68;41.38;99364.25;6183959;23;20175;-33
2021/01/20 11:35:07;;;;;;;1.10;1.00;;;;;;;21.76;41.25;99371.31;6210305;23;20169;-31
2021/01/20 11:37:33;;;;;;;1.33;0.80;;;;;;;21.85;40.99;99364.53;6211448;23;20891;-32
2021/01/20 11:40:03;;;;;;;2.60;0.90;;;;;;;21.92;41.49;99350.84;6211721;23;20548;-35